createdAt,value
2022-10-22T00:02:37.069Z,15.10
2022-10-22T00:05:38.952Z,15.10
2022-10-22T00:08:40.560Z,15.10
2022-10-22T00:11:42.920Z,15.10
2022-10-22T00:14:44.565Z,15.10
2022-10-22T00:17:46.968Z,15.20
2022-10-22T00:20:48.993Z,15.20
2022-10-22T00:23:50.571Z,15.10
2022-10-22T00:26:52.506Z,15.20
2022-10-22T00:29:54.076Z,15.10
2022-10-22T00:32:56.198Z,15.10
2022-10-22T00:35:58.262Z,15.10
2022-10-22T00:38:59.821Z,15.10
2022-10-22T00:42:01.468Z,15.00
2022-10-22T00:45:03.084Z,15.00
2022-10-22T00:48:13.318Z,15.00
2022-10-22T00:51:14.895Z,15.00
2022-10-22T00:54:16.606Z,14.90
2022-10-22T00:57:19.788Z,14.90
2022-10-22T01:00:21.648Z,14.90
2022-10-22T01:03:23.956Z,14.90
2022-10-22T01:06:29.185Z,14.90
2022-10-22T01:09:37.888Z,14.90
2022-10-22T01:13:09.762Z,14.80
2022-10-22T01:16:29.534Z,14.80
2022-10-22T01:20:01.428Z,14.80
2022-10-22T01:23:35.321Z,14.80
2022-10-22T01:27:30.169Z,14.70
2022-10-22T01:30:31.865Z,14.70
2022-10-22T01:33:34.368Z,14.60
2022-10-22T01:36:38.671Z,14.60
2022-10-22T01:39:42.256Z,14.50
2022-10-22T01:43:00.862Z,14.50
2022-10-22T01:46:04.839Z,14.50
2022-10-22T01:49:26.785Z,14.40
2022-10-22T01:52:51.801Z,14.40
2022-10-22T01:56:11.415Z,14.40
2022-10-22T01:59:50.807Z,14.40
2022-10-22T02:03:21.270Z,14.40
2022-10-22T02:06:27.250Z,14.40
2022-10-22T02:09:30.991Z,14.30
2022-10-22T02:12:34.998Z,14.30
2022-10-22T02:15:38.245Z,14.30
2022-10-22T02:18:42.868Z,14.30
2022-10-22T02:21:44.963Z,14.30
2022-10-22T02:24:48.642Z,14.30
2022-10-22T02:27:58.595Z,14.30
2022-10-22T02:31:08.343Z,14.30
2022-10-22T02:34:15.739Z,14.20
2022-10-22T02:37:18.444Z,14.20
2022-10-22T02:40:20.924Z,14.20
2022-10-22T02:43:25.365Z,14.20
2022-10-22T02:46:26.984Z,14.20
2022-10-22T02:49:28.593Z,14.20
2022-10-22T02:52:30.155Z,14.10
2022-10-22T02:55:31.790Z,14.10
2022-10-22T02:58:33.426Z,14.10
2022-10-22T03:01:35.135Z,14.10
2022-10-22T03:04:36.698Z,14.10
2022-10-22T03:07:38.837Z,14.10
2022-10-22T03:10:40.736Z,14.10
2022-10-22T03:13:42.411Z,14.00
2022-10-22T03:16:44.043Z,14.00
2022-10-22T03:19:45.631Z,14.00
2022-10-22T03:22:47.467Z,14.00
2022-10-22T03:25:49.720Z,14.00
2022-10-22T03:28:51.555Z,14.00
2022-10-22T03:31:54.317Z,14.00
2022-10-22T03:34:56.072Z,14.00
2022-10-22T03:38:00.608Z,14.00
2022-10-22T03:41:03.499Z,14.00
2022-10-22T03:44:05.857Z,14.00
2022-10-22T03:47:07.546Z,14.00
2022-10-22T03:50:09.663Z,14.00
2022-10-22T03:53:11.360Z,14.00
2022-10-22T03:56:13.297Z,14.00
2022-10-22T03:59:15.051Z,14.00
2022-10-22T04:02:16.939Z,14.00
2022-10-22T04:05:18.530Z,14.00
2022-10-22T04:08:20.154Z,13.90
2022-10-22T04:11:22.092Z,14.00
2022-10-22T04:14:23.674Z,14.00
2022-10-22T04:17:25.314Z,14.00
2022-10-22T04:20:26.892Z,14.00
2022-10-22T04:23:28.462Z,14.00
2022-10-22T04:26:30.082Z,14.00
2022-10-22T04:29:31.668Z,14.00
2022-10-22T04:32:33.271Z,14.00
2022-10-22T04:35:38.911Z,14.00
2022-10-22T04:38:41.829Z,14.00
2022-10-22T04:41:43.480Z,14.00
2022-10-22T04:44:45.239Z,14.00
2022-10-22T04:47:46.819Z,14.00
2022-10-22T04:50:48.396Z,14.00
2022-10-22T04:53:50.686Z,14.00
2022-10-22T04:56:52.329Z,14.00
2022-10-22T04:59:53.891Z,14.00
2022-10-22T05:02:55.495Z,13.90
2022-10-22T05:06:01.154Z,13.90
2022-10-22T05:09:06.626Z,13.80
2022-10-22T05:12:08.296Z,13.90
2022-10-22T05:15:10.102Z,13.90
2022-10-22T05:18:11.676Z,13.80
2022-10-22T05:21:18.663Z,13.90
2022-10-22T05:24:20.728Z,13.90
2022-10-22T05:27:22.329Z,13.90
2022-10-22T05:30:23.904Z,13.90
2022-10-22T05:33:27.000Z,13.90
2022-10-22T05:36:28.683Z,13.90
2022-10-22T05:39:30.324Z,13.90
2022-10-22T05:42:33.182Z,14.00
2022-10-22T05:45:39.230Z,14.00
2022-10-22T05:48:41.056Z,14.00
2022-10-22T05:51:43.147Z,14.00
2022-10-22T05:54:44.728Z,14.10
2022-10-22T05:57:46.419Z,14.10
2022-10-22T06:00:47.962Z,14.10
2022-10-22T06:03:49.663Z,14.10
2022-10-22T06:06:53.216Z,14.10
2022-10-22T06:09:55.090Z,14.00
2022-10-22T06:12:56.670Z,14.00
2022-10-22T06:15:58.663Z,14.00
2022-10-22T06:19:03.574Z,14.00
2022-10-22T06:22:05.385Z,14.10
2022-10-22T06:25:08.367Z,14.00
2022-10-22T06:28:10.360Z,14.00
2022-10-22T06:31:12.026Z,14.00
2022-10-22T06:34:15.406Z,14.00
2022-10-22T06:37:17.432Z,13.90
2022-10-22T06:40:19.323Z,13.90
2022-10-22T06:43:20.914Z,13.80
2022-10-22T06:46:23.186Z,13.80
2022-10-22T06:49:24.800Z,13.70
2022-10-22T06:52:26.403Z,13.70
2022-10-22T06:55:28.341Z,13.70
2022-10-22T06:58:29.976Z,13.60
2022-10-22T07:01:33.721Z,13.70
2022-10-22T07:04:35.987Z,13.70
2022-10-22T07:07:37.530Z,13.70
2022-10-22T07:10:39.354Z,13.70
2022-10-22T07:13:41.579Z,13.70
2022-10-22T07:16:43.369Z,13.70
2022-10-22T07:19:48.430Z,13.70
2022-10-22T07:22:52.828Z,13.70
2022-10-22T07:25:54.457Z,13.80
2022-10-22T07:28:56.681Z,13.80
2022-10-22T07:31:58.391Z,13.80
2022-10-22T07:34:59.975Z,13.90
2022-10-22T07:38:01.561Z,13.90
2022-10-22T07:41:04.303Z,14.00
2022-10-22T07:44:05.908Z,14.00
2022-10-22T07:47:11.159Z,14.20
2022-10-22T07:50:13.044Z,14.30
2022-10-22T07:53:14.611Z,14.40
2022-10-22T07:56:16.254Z,14.50
2022-10-22T07:59:17.832Z,14.70
2022-10-22T08:02:19.475Z,14.80
2022-10-22T08:05:21.057Z,14.90
2022-10-22T08:08:25.923Z,15.00
2022-10-22T08:11:30.999Z,15.10
2022-10-22T08:14:32.874Z,15.20
2022-10-22T08:17:34.631Z,15.30
2022-10-22T08:20:36.204Z,15.40
2022-10-22T08:23:38.474Z,15.50
2022-10-22T08:26:41.273Z,15.50
2022-10-22T08:29:42.873Z,15.60
2022-10-22T08:32:44.610Z,15.60
2022-10-22T08:35:50.184Z,15.80
2022-10-22T08:38:51.810Z,15.90
2022-10-22T08:42:25.805Z,15.90
2022-10-22T08:45:46.811Z,16.00
2022-10-22T08:48:57.240Z,16.00
2022-10-22T08:52:00.134Z,16.00
2022-10-22T08:55:02.862Z,16.00
2022-10-22T08:58:20.475Z,16.10
2022-10-22T09:01:31.450Z,16.20
2022-10-22T09:04:41.507Z,16.30
2022-10-22T09:07:48.504Z,16.30
2022-10-22T09:11:12.388Z,16.30
2022-10-22T09:14:22.650Z,16.30
2022-10-22T09:17:41.311Z,16.40
2022-10-22T09:21:06.614Z,16.50
2022-10-22T09:24:38.566Z,16.50
2022-10-22T09:27:40.616Z,16.60
2022-10-22T09:30:43.302Z,16.70
2022-10-22T09:33:48.876Z,16.80
2022-10-22T09:37:03.941Z,16.80
2022-10-22T09:40:05.853Z,16.80
2022-10-22T09:43:12.040Z,16.90
2022-10-22T09:46:20.210Z,16.90
2022-10-22T09:49:23.961Z,16.90
2022-10-22T09:52:30.655Z,16.90
2022-10-22T09:55:32.315Z,17.00
2022-10-22T09:58:44.722Z,17.00
2022-10-22T10:01:46.399Z,17.10
2022-10-22T10:04:57.639Z,17.00
2022-10-22T10:08:05.749Z,16.90
2022-10-22T10:11:29.266Z,16.80
2022-10-22T10:14:52.663Z,16.80
2022-10-22T10:18:12.360Z,16.90
2022-10-22T10:21:34.396Z,17.10
2022-10-22T10:25:00.083Z,17.20
2022-10-22T10:28:25.352Z,17.40
2022-10-22T10:32:05.225Z,17.60
2022-10-22T10:35:19.602Z,17.80
2022-10-22T10:38:45.991Z,18.00
2022-10-22T10:42:03.543Z,18.10
2022-10-22T10:45:14.357Z,18.30
2022-10-22T10:48:32.515Z,18.30
2022-10-22T10:51:57.787Z,18.20
2022-10-22T10:55:21.632Z,18.20
2022-10-22T10:58:41.474Z,18.20
2022-10-22T11:01:53.506Z,18.20
2022-10-22T11:05:39.568Z,18.30
2022-10-22T11:08:45.854Z,18.30
2022-10-22T11:11:51.647Z,18.40
2022-10-22T11:14:56.287Z,18.60
2022-10-22T11:18:17.323Z,18.90
2022-10-22T11:21:23.049Z,18.90
2022-10-22T11:24:45.831Z,19.00
2022-10-22T11:28:12.315Z,19.00
2022-10-22T11:31:16.014Z,18.90
2022-10-22T11:34:40.354Z,19.10
2022-10-22T11:37:44.572Z,19.30
2022-10-22T11:41:11.769Z,19.40
2022-10-22T11:44:25.518Z,19.50
2022-10-22T11:47:33.469Z,19.50
2022-10-22T11:50:41.253Z,19.50
2022-10-22T11:53:42.837Z,19.50
2022-10-22T11:56:44.422Z,19.70
2022-10-22T11:59:56.366Z,19.60
2022-10-22T12:03:16.723Z,19.60
2022-10-22T12:06:27.374Z,19.70
2022-10-22T12:09:32.767Z,19.80
2022-10-22T12:12:39.811Z,19.90
2022-10-22T12:15:49.738Z,20.00
2022-10-22T12:18:58.944Z,20.00
2022-10-22T12:22:23.677Z,20.10
2022-10-22T12:25:35.461Z,20.20
2022-10-22T12:28:40.497Z,20.20
2022-10-22T12:31:44.538Z,20.40
2022-10-22T12:34:47.896Z,20.50
2022-10-22T12:37:54.927Z,20.50
2022-10-22T12:40:57.515Z,20.50
2022-10-22T12:44:04.241Z,20.60
2022-10-22T12:47:07.622Z,20.60
2022-10-22T12:50:18.278Z,20.60
2022-10-22T12:53:32.938Z,20.50
2022-10-22T12:56:36.394Z,20.70
2022-10-22T12:59:40.156Z,20.90
2022-10-22T13:02:45.254Z,21.00
2022-10-22T13:05:48.887Z,21.10
2022-10-22T13:09:02.173Z,21.20
2022-10-22T13:12:06.539Z,21.10
2022-10-22T13:15:27.824Z,20.90
2022-10-22T13:18:35.649Z,21.00
2022-10-22T13:21:40.353Z,20.90
2022-10-22T13:24:50.297Z,20.90
2022-10-22T13:27:59.071Z,20.80
2022-10-22T13:31:20.423Z,20.90
2022-10-22T13:34:24.995Z,20.70
2022-10-22T13:37:28.691Z,20.70
2022-10-22T13:40:30.295Z,20.60
2022-10-22T13:43:31.866Z,20.60
2022-10-22T13:46:37.740Z,20.70
2022-10-22T13:49:43.166Z,20.70
2022-10-22T13:52:47.690Z,20.50
2022-10-22T13:55:50.240Z,20.30
2022-10-22T13:58:52.021Z,20.40
2022-10-22T14:01:54.738Z,20.40
2022-10-22T14:04:56.714Z,20.50
2022-10-22T14:08:04.327Z,20.30
2022-10-22T14:11:06.128Z,20.40
2022-10-22T14:14:09.092Z,20.50
2022-10-22T14:17:16.647Z,20.50
2022-10-22T14:20:21.796Z,20.40
2022-10-22T14:23:26.644Z,20.30
2022-10-22T14:26:32.915Z,20.20
2022-10-22T14:29:34.497Z,20.10
2022-10-22T14:32:39.303Z,20.00
2022-10-22T14:35:41.181Z,20.00
2022-10-22T14:38:43.860Z,19.90
2022-10-22T14:41:45.699Z,19.90
2022-10-22T14:44:47.304Z,20.00
2022-10-22T14:47:49.923Z,20.00
2022-10-22T14:50:51.696Z,20.00
2022-10-22T14:53:53.363Z,20.20
2022-10-22T14:56:54.978Z,20.30
2022-10-22T14:59:56.610Z,20.50
2022-10-22T15:03:03.263Z,20.40
2022-10-22T15:06:06.247Z,20.40
2022-10-22T15:09:07.924Z,20.30
2022-10-22T15:12:09.654Z,20.20
2022-10-22T15:15:11.315Z,20.00
2022-10-22T15:18:12.891Z,19.90
2022-10-22T15:21:22.231Z,19.80
2022-10-22T15:24:23.771Z,19.70
2022-10-22T15:27:25.378Z,19.60
2022-10-22T15:30:26.943Z,19.40
2022-10-22T15:33:29.256Z,19.40
2022-10-22T15:36:30.900Z,19.20
2022-10-22T15:39:33.220Z,19.10
2022-10-22T15:42:35.672Z,19.10
2022-10-22T15:45:37.380Z,18.90
2022-10-22T15:48:39.602Z,18.80
2022-10-22T15:51:41.268Z,18.70
2022-10-22T15:54:45.804Z,18.50
2022-10-22T15:57:47.840Z,18.40
2022-10-22T16:00:49.782Z,18.30
2022-10-22T16:04:00.171Z,18.20
2022-10-22T16:07:01.867Z,18.10
2022-10-22T16:10:04.334Z,17.90
2022-10-22T16:13:05.906Z,17.80
2022-10-22T16:16:08.089Z,17.70
2022-10-22T16:19:11.272Z,17.60
2022-10-22T16:22:13.758Z,17.50
2022-10-22T16:25:15.428Z,17.40
2022-10-22T16:28:17.043Z,17.30
2022-10-22T16:31:19.675Z,17.20
2022-10-22T16:34:21.218Z,17.10
2022-10-22T16:37:23.250Z,17.00
2022-10-22T16:40:26.447Z,16.90
2022-10-22T16:43:29.223Z,16.90
2022-10-22T16:46:31.609Z,16.80
2022-10-22T16:49:33.655Z,16.80
2022-10-22T16:52:35.916Z,16.60
2022-10-22T16:55:38.417Z,16.60
2022-10-22T16:58:44.563Z,16.50
2022-10-22T17:01:46.124Z,16.50
2022-10-22T17:04:47.701Z,16.40
2022-10-22T17:07:49.753Z,16.40
2022-10-22T17:10:51.323Z,16.30
2022-10-22T17:13:54.499Z,16.20
2022-10-22T17:16:56.098Z,16.10
2022-10-22T17:19:58.183Z,16.10
2022-10-22T17:22:59.733Z,16.00
2022-10-22T17:26:04.432Z,15.90
2022-10-22T17:29:06.403Z,15.90
2022-10-22T17:32:07.971Z,15.80
2022-10-22T17:35:09.858Z,15.70
2022-10-22T17:38:12.804Z,15.60
2022-10-22T17:41:21.374Z,15.60
2022-10-22T17:44:23.120Z,15.60
2022-10-22T17:47:24.865Z,15.50
2022-10-22T17:50:26.481Z,15.50
2022-10-22T17:53:28.268Z,15.40
2022-10-22T17:56:30.333Z,15.30
2022-10-22T17:59:32.372Z,15.30
2022-10-22T18:02:34.015Z,15.20
2022-10-22T18:05:36.300Z,15.20
2022-10-22T18:08:38.512Z,15.10
2022-10-22T18:11:40.798Z,15.10
2022-10-22T18:14:42.443Z,15.10
2022-10-22T18:17:44.432Z,15.10
2022-10-22T18:20:52.925Z,15.00
2022-10-22T18:23:55.704Z,14.90
2022-10-22T18:26:57.510Z,14.90
2022-10-22T18:29:59.440Z,14.90
2022-10-22T18:33:00.995Z,14.90
2022-10-22T18:36:11.460Z,14.80
2022-10-22T18:39:15.418Z,14.80
2022-10-22T18:42:17.231Z,14.70
2022-10-22T18:45:18.863Z,14.70
2022-10-22T18:48:22.825Z,14.70
2022-10-22T18:51:26.466Z,14.60
2022-10-22T18:54:28.104Z,14.60
2022-10-22T18:57:29.815Z,14.50
2022-10-22T19:00:31.969Z,14.50
2022-10-22T19:03:33.570Z,14.40
2022-10-22T19:06:37.074Z,14.40
2022-10-22T19:09:40.390Z,14.40
2022-10-22T19:12:41.984Z,14.40
2022-10-22T19:15:43.946Z,14.30
2022-10-22T19:18:45.626Z,14.20
2022-10-22T19:21:48.419Z,14.20
2022-10-22T19:24:50.134Z,14.10
2022-10-22T19:27:51.785Z,14.10
2022-10-22T19:30:54.519Z,14.10
2022-10-22T19:33:56.118Z,14.10
2022-10-22T19:36:58.332Z,14.10
2022-10-22T19:39:59.948Z,14.10
2022-10-22T19:43:01.547Z,14.10
2022-10-22T19:46:04.875Z,14.00
2022-10-22T19:49:06.605Z,14.00
2022-10-22T19:52:08.519Z,13.90
2022-10-22T19:55:10.562Z,13.90
2022-10-22T19:58:13.047Z,13.90
2022-10-22T20:01:16.845Z,13.80
2022-10-22T20:04:19.525Z,13.70
2022-10-22T20:07:21.319Z,13.70
2022-10-22T20:10:24.087Z,13.60
2022-10-22T20:13:25.691Z,13.60
2022-10-22T20:16:29.725Z,13.50
2022-10-22T20:19:32.433Z,13.50
2022-10-22T20:22:34.375Z,13.50
2022-10-22T20:25:40.349Z,13.40
2022-10-22T20:28:41.963Z,13.40
2022-10-22T20:31:43.556Z,13.40
2022-10-22T20:34:45.127Z,13.40
2022-10-22T20:37:46.700Z,13.30
2022-10-22T20:40:48.275Z,13.30
2022-10-22T20:43:51.365Z,13.30
2022-10-22T20:46:52.998Z,13.30
2022-10-22T20:49:54.723Z,13.30
2022-10-22T20:52:56.364Z,13.30
2022-10-22T20:55:59.161Z,13.30
2022-10-22T20:59:05.201Z,13.20
2022-10-22T21:02:08.934Z,13.10
2022-10-22T21:05:10.588Z,13.00
2022-10-22T21:08:17.177Z,13.00
2022-10-22T21:11:19.845Z,12.90
2022-10-22T21:14:23.091Z,12.90
2022-10-22T21:17:24.681Z,12.90
2022-10-22T21:20:26.312Z,12.90
2022-10-22T21:23:28.146Z,12.90
2022-10-22T21:26:29.800Z,12.90
2022-10-22T21:29:31.366Z,12.90
2022-10-22T21:32:32.984Z,12.90
2022-10-22T21:35:34.537Z,12.90
2022-10-22T21:38:37.470Z,12.90
2022-10-22T21:41:39.187Z,12.80
2022-10-22T21:44:40.766Z,12.80
2022-10-22T21:47:42.717Z,12.70
2022-10-22T21:50:44.851Z,12.80
2022-10-22T21:53:46.724Z,12.70
2022-10-22T21:56:48.952Z,12.70
2022-10-22T21:59:50.635Z,12.70
2022-10-22T22:02:52.257Z,12.70
2022-10-22T22:06:05.947Z,12.60
2022-10-22T22:09:07.773Z,12.50
2022-10-22T22:12:09.482Z,12.40
2022-10-22T22:15:11.133Z,12.30
2022-10-22T22:18:12.760Z,12.20
2022-10-22T22:21:17.833Z,12.10
2022-10-22T22:24:19.443Z,12.20
2022-10-22T22:30:28.622Z,12.10
2022-10-22T22:33:30.217Z,12.00
2022-10-22T22:36:40.498Z,12.00
2022-10-22T22:39:42.049Z,12.00
2022-10-22T22:42:43.611Z,12.00
2022-10-22T22:45:45.174Z,12.00
2022-10-22T22:48:50.223Z,12.00
2022-10-22T22:51:51.795Z,12.00
2022-10-22T22:54:53.421Z,11.90
2022-10-22T22:57:55.080Z,11.90
2022-10-22T23:01:06.954Z,11.90
2022-10-22T23:04:17.390Z,11.80
2022-10-22T23:07:19.006Z,11.80
2022-10-22T23:10:20.684Z,11.80
2022-10-22T23:13:22.241Z,11.70
2022-10-22T23:16:25.537Z,11.70
2022-10-22T23:19:27.195Z,11.70
2022-10-22T23:22:28.830Z,11.70
2022-10-22T23:25:30.682Z,11.50
2022-10-22T23:28:32.497Z,11.60
2022-10-22T23:31:34.586Z,11.50
2022-10-22T23:34:36.231Z,11.40
2022-10-22T23:37:37.991Z,11.40
2022-10-22T23:40:39.760Z,11.40
2022-10-22T23:43:41.488Z,11.30
2022-10-22T23:46:43.106Z,11.30
2022-10-22T23:49:47.579Z,11.30
2022-10-22T23:52:49.151Z,11.20
2022-10-22T23:55:50.709Z,11.20
2022-10-22T23:58:53.267Z,11.20
